Time,TemperatureF,DewpointF,PressureIn,WindDirection,WindDirectionDegrees,WindSpeedMPH,WindSpeedGustMPH,Humidity,HourlyPrecipIn,Conditions,Clouds,dailyrainin,SoftwareType,DateUTC
2013-02-23 00:00:00,37.6,35.2,30.06,ENE,58,3.0,7.0,91,0.00,,,0.00,Wunderground v.1.15,2013-02-23 05:00:00,
2013-02-23 00:05:00,37.6,35.2,30.06,NE,34,5.0,7.0,91,0.00,,,0.00,Wunderground v.1.15,2013-02-23 05:05:00,
2013-02-23 00:10:00,37.5,35.1,30.07,NE,40,5.0,5.0,91,0.00,,,0.00,Wunderground v.1.15,2013-02-23 05:10:00,
2013-02-23 00:15:00,37.5,35.1,30.07,NNE,26,4.0,5.0,91,0.00,,,0.00,Wunderground v.1.15,2013-02-23 05:15:00,
2013-02-23 00:20:00,37.3,34.9,30.06,NE,51,5.0,5.0,91,0.00,,,0.00,Wunderground v.1.15,2013-02-23 05:20:00,
2013-02-23 00:25:00,37.2,34.8,30.06,ENE,59,5.0,5.0,91,0.00,,,0.00,Wunderground v.1.15,2013-02-23 05:25:00,
2013-02-23 00:30:00,37.0,34.6,30.07,NE,46,5.0,5.0,91,0.00,,,0.00,Wunderground v.1.15,2013-02-23 05:30:00,
2013-02-23 00:40:00,37.0,34.9,30.07,NE,50,5.0,6.0,92,0.00,,,0.00,Wunderground v.1.15,2013-02-23 05:40:00,
2013-02-23 00:50:00,36.9,34.8,30.06,NE,40,5.0,5.0,92,0.00,,,0.00,Wunderground v.1.15,2013-02-23 05:50:00,
2013-02-23 00:55:00,36.9,34.8,30.06,NE,39,5.0,5.0,92,0.00,,,0.00,Wunderground v.1.15,2013-02-23 05:55:00,
2013-02-23 01:00:00,36.8,34.7,30.06,ENE,61,5.0,10.0,92,0.00,,,0.00,Wunderground v.1.15,2013-02-23 06:00:00,
2013-02-23 01:10:00,36.8,34.7,30.05,NE,39,6.0,6.0,92,0.00,,,0.00,Wunderground v.1.15,2013-02-23 06:10:00,
2013-02-23 01:15:00,36.6,34.5,30.04,NNE,30,6.0,7.0,92,0.00,,,0.00,Wunderground v.1.15,2013-02-23 06:15:00,
2013-02-23 01:25:00,36.5,34.4,30.03,ENE,58,6.0,6.0,92,0.00,,,0.00,Wunderground v.1.15,2013-02-23 06:25:00,
2013-02-23 01:30:00,36.5,34.7,30.02,NE,52,7.0,7.0,93,0.00,,,0.00,Wunderground v.1.15,2013-02-23 06:30:00,
2013-02-23 01:35:00,36.5,34.7,30.02,NE,40,7.0,8.0,93,0.00,,,0.00,Wunderground v.1.15,2013-02-23 06:35:00,
2013-02-23 01:40:00,36.3,34.2,30.02,NNE,26,7.0,7.0,92,0.00,,,0.00,Wunderground v.1.15,2013-02-23 06:40:00,
2013-02-23 01:45:00,36.3,34.5,30.02,NNE,32,7.0,7.0,93,0.00,,,0.00,Wunderground v.1.15,2013-02-23 06:45:00,
2013-02-23 01:50:00,36.2,34.4,30.03,NE,35,6.0,6.0,93,0.00,,,0.00,Wunderground v.1.15,2013-02-23 06:50:00,
2013-02-23 02:00:00,36.3,34.5,30.04,North,5,3.0,4.0,93,0.00,,,0.00,Wunderground v.1.15,2013-02-23 07:00:00,
2013-02-23 02:10:00,36.3,34.5,30.05,North,5,0.0,0.0,93,0.00,,,0.00,Wunderground v.1.15,2013-02-23 07:10:00,
2013-02-23 02:20:00,36.3,34.5,30.05,North,5,0.0,0.0,93,0.00,,,0.00,Wunderground v.1.15,2013-02-23 07:20:00,
2013-02-23 02:25:00,36.3,34.5,30.04,North,5,0.0,0.0,93,0.00,,,0.00,Wunderground v.1.15,2013-02-23 07:25:00,
2013-02-23 02:30:00,36.3,34.5,30.03,North,5,0.0,0.0,93,0.00,,,0.00,Wunderground v.1.15,2013-02-23 07:30:00,
2013-02-23 02:40:00,36.3,34.5,30.02,ENE,61,2.0,4.0,93,0.00,,,0.00,Wunderground v.1.15,2013-02-23 07:40:00,
2013-02-23 02:45:00,36.3,34.5,30.01,ENE,71,3.0,4.0,93,0.00,,,0.00,Wunderground v.1.15,2013-02-23 07:45:00,
2013-02-23 02:50:00,36.2,34.4,30.01,NE,43,4.0,4.0,93,0.00,,,0.00,Wunderground v.1.15,2013-02-23 07:50:00,
2013-02-23 03:00:00,36.2,34.4,30.03,NNE,24,4.0,4.0,93,0.00,,,0.00,Wunderground v.1.15,2013-02-23 08:00:00,
2013-02-23 03:10:00,36.3,34.5,30.04,NNE,26,2.0,2.0,93,0.00,,,0.00,Wunderground v.1.15,2013-02-23 08:10:00,
2013-02-23 03:20:00,36.5,34.7,30.03,NNE,22,1.0,1.0,93,0.00,,,0.00,Wunderground v.1.15,2013-02-23 08:20:00,
2013-02-23 03:30:00,36.3,34.5,30.01,NE,39,2.0,6.0,93,0.00,,,0.00,Wunderground v.1.15,2013-02-23 08:30:00,
2013-02-23 03:40:00,36.2,34.4,30.02,NNE,30,4.0,4.0,93,0.00,,,0.00,Wunderground v.1.15,2013-02-23 08:40:00,
2013-02-23 03:50:00,36.2,34.4,30.03,NNE,30,0.0,0.0,93,0.00,,,0.00,Wunderground v.1.15,2013-02-23 08:50:00,
2013-02-23 04:00:00,36.2,34.4,30.04,NNE,30,0.0,0.0,93,0.00,,,0.00,Wunderground v.1.15,2013-02-23 09:00:00,
2013-02-23 04:10:00,36.3,34.5,30.03,NNE,30,0.0,0.0,93,0.00,,,0.00,Wunderground v.1.15,2013-02-23 09:10:00,
2013-02-23 04:15:00,36.5,34.7,30.03,NNE,30,0.0,0.0,93,0.00,,,0.00,Wunderground v.1.15,2013-02-23 09:15:00,
2013-02-23 04:20:00,36.3,34.5,30.04,NNE,30,0.0,0.0,93,0.00,,,0.01,Wunderground v.1.15,2013-02-23 09:20:00,
2013-02-23 04:30:00,36.3,34.5,30.04,NNE,30,0.0,0.0,93,0.05,,,0.01,Wunderground v.1.15,2013-02-23 09:30:00,
2013-02-23 04:35:00,36.3,34.7,30.04,NNE,30,0.0,0.0,94,0.05,,,0.02,Wunderground v.1.15,2013-02-23 09:35:00,
2013-02-23 04:45:00,36.3,34.7,30.04,NNE,30,0.0,0.0,94,0.04,,,0.02,Wunderground v.1.15,2013-02-23 09:45:00,
2013-02-23 04:55:00,36.0,34.4,30.02,NNE,31,1.0,1.0,94,0.00,,,0.02,Wunderground v.1.15,2013-02-23 09:55:00,
2013-02-23 05:05:00,35.9,34.3,30.02,NNE,14,1.0,5.0,94,0.00,,,0.03,Wunderground v.1.15,2013-02-23 10:05:00,
2013-02-23 05:10:00,35.8,34.5,30.01,NNE,26,2.0,2.0,95,0.00,,,0.03,Wunderground v.1.15,2013-02-23 10:10:00,
2013-02-23 05:15:00,35.8,34.5,30.01,NNE,17,2.0,2.0,95,0.00,,,0.03,Wunderground v.1.15,2013-02-23 10:15:00,
2013-02-23 05:20:00,35.6,34.3,30.00,NNE,30,2.0,2.0,95,0.00,,,0.03,Wunderground v.1.15,2013-02-23 10:20:00,
2013-02-23 05:25:00,35.6,34.3,30.01,NNE,30,1.0,2.0,95,0.00,,,0.03,Wunderground v.1.15,2013-02-23 10:25:00,
2013-02-23 05:30:00,35.6,34.3,30.00,NNE,20,0.0,0.0,95,0.00,,,0.03,Wunderground v.1.15,2013-02-23 10:30:00,
2013-02-23 05:40:00,35.6,34.3,29.99,NNE,21,0.0,0.0,95,0.00,,,0.03,Wunderground v.1.15,2013-02-23 10:40:00,
2013-02-23 05:50:00,35.6,34.6,29.99,NNE,21,0.0,0.0,96,0.00,,,0.03,Wunderground v.1.15,2013-02-23 10:50:00,
2013-02-23 06:00:00,35.6,34.6,29.99,NNE,21,0.0,0.0,96,0.00,,,0.03,Wunderground v.1.15,2013-02-23 11:00:00,
2013-02-23 06:10:00,35.9,34.9,29.98,NNE,21,0.0,0.0,96,0.00,,,0.03,Wunderground v.1.15,2013-02-23 11:10:00,
2013-02-23 06:15:00,35.9,34.9,29.99,NNE,21,0.0,0.0,96,0.00,,,0.03,Wunderground v.1.15,2013-02-23 11:15:00,
2013-02-23 06:20:00,35.9,34.9,29.98,NNE,21,0.0,0.0,96,0.00,,,0.03,Wunderground v.1.15,2013-02-23 11:20:00,
2013-02-23 06:25:00,35.8,34.8,29.98,NNE,21,0.0,0.0,96,0.00,,,0.03,Wunderground v.1.15,2013-02-23 11:25:00,
2013-02-23 06:30:00,35.8,34.8,29.98,NNE,21,0.0,0.0,96,0.00,,,0.03,Wunderground v.1.15,2013-02-23 11:30:00,
2013-02-23 06:40:00,35.6,34.6,29.98,NNE,21,0.0,0.0,96,0.00,,,0.03,Wunderground v.1.15,2013-02-23 11:40:00,
2013-02-23 06:50:00,35.6,34.6,29.99,NNE,21,0.0,0.0,96,0.00,,,0.03,Wunderground v.1.15,2013-02-23 11:50:00,
2013-02-23 07:00:00,35.6,34.6,29.98,NNE,21,0.0,0.0,96,0.00,,,0.03,Wunderground v.1.15,2013-02-23 12:00:00,
2013-02-23 07:10:00,35.6,34.6,29.97,NNE,21,0.0,0.0,96,0.00,,,0.03,Wunderground v.1.15,2013-02-23 12:10:00,
2013-02-23 07:20:00,35.6,34.6,29.98,NNE,21,0.0,0.0,96,0.00,,,0.03,Wunderground v.1.15,2013-02-23 12:20:00,
2013-02-23 07:25:00,35.6,34.6,29.98,NNE,21,0.0,0.0,96,0.00,,,0.03,Wunderground v.1.15,2013-02-23 12:25:00,
2013-02-23 07:30:00,35.8,34.8,29.97,NNE,21,0.0,0.0,96,0.00,,,0.03,Wunderground v.1.15,2013-02-23 12:30:00,
2013-02-23 07:35:00,35.9,34.9,29.97,NNE,21,0.0,0.0,96,0.00,,,0.03,Wunderground v.1.15,2013-02-23 12:35:00,
2013-02-23 07:45:00,36.0,35.0,29.98,NNE,21,0.0,0.0,96,0.00,,,0.03,Wunderground v.1.15,2013-02-23 12:45:00,
2013-02-23 07:50:00,36.0,35.0,29.98,NNE,21,0.0,0.0,96,0.00,,,0.03,Wunderground v.1.15,2013-02-23 12:50:00,
2013-02-23 08:00:00,36.3,35.3,29.98,NNE,21,0.0,0.0,96,0.00,,,0.03,Wunderground v.1.15,2013-02-23 13:00:00,
2013-02-23 08:10:00,36.6,35.8,29.98,NNE,21,0.0,0.0,97,0.00,,,0.03,Wunderground v.1.15,2013-02-23 13:10:00,
2013-02-23 08:20:00,37.0,36.2,29.97,NNE,21,0.0,0.0,97,0.00,,,0.03,Wunderground v.1.15,2013-02-23 13:20:00,
2013-02-23 08:30:00,37.3,36.3,29.97,NNE,21,0.0,0.0,96,0.00,,,0.03,Wunderground v.1.15,2013-02-23 13:30:00,
2013-02-23 08:35:00,37.5,36.5,29.97,NNE,21,0.0,0.0,96,0.00,,,0.03,Wunderground v.1.15,2013-02-23 13:35:00,
2013-02-23 08:40:00,37.6,36.6,29.97,NNE,21,0.0,0.0,96,0.00,,,0.03,Wunderground v.1.15,2013-02-23 13:40:00,
2013-02-23 08:50:00,37.8,36.8,29.98,NNE,21,0.0,0.0,96,0.00,,,0.03,Wunderground v.1.15,2013-02-23 13:50:00,
2013-02-23 09:00:00,37.9,36.6,29.97,NNE,21,0.0,0.0,95,0.00,,,0.03,Wunderground v.1.15,2013-02-23 14:00:00,
2013-02-23 09:05:00,38.0,36.7,29.97,NNE,21,0.0,0.0,95,0.00,,,0.03,Wunderground v.1.15,2013-02-23 14:05:00,
2013-02-23 09:15:00,38.3,37.0,29.98,NNE,21,0.0,0.0,95,0.00,,,0.03,Wunderground v.1.15,2013-02-23 14:15:00,
2013-02-23 09:20:00,38.6,37.3,29.97,NNE,21,0.0,0.0,95,0.00,,,0.03,Wunderground v.1.15,2013-02-23 14:20:00,
2013-02-23 09:25:00,38.9,37.6,29.97,NNE,21,0.0,0.0,95,0.00,,,0.03,Wunderground v.1.15,2013-02-23 14:25:00,
2013-02-23 09:35:00,39.8,38.5,29.97,NNE,21,0.0,0.0,95,0.00,,,0.03,Wunderground v.1.15,2013-02-23 14:35:00,
2013-02-23 09:40:00,40.1,38.5,29.97,NNE,21,0.0,0.0,94,0.00,,,0.03,Wunderground v.1.15,2013-02-23 14:40:00,
2013-02-23 09:50:00,40.8,39.2,29.97,NNE,24,0.0,0.0,94,0.00,,,0.03,Wunderground v.1.15,2013-02-23 14:50:00,
2013-02-23 09:55:00,40.9,39.0,29.97,NNE,24,0.0,0.0,93,0.00,,,0.03,Wunderground v.1.15,2013-02-23 14:55:00,
2013-02-23 10:00:00,41.1,39.2,29.97,NNE,24,0.0,0.0,93,0.00,,,0.03,Wunderground v.1.15,2013-02-23 15:00:00,
2013-02-23 10:10:00,41.3,39.2,29.97,NNE,24,0.0,0.0,92,0.00,,,0.03,Wunderground v.1.15,2013-02-23 15:10:00,
2013-02-23 10:20:00,41.8,39.4,29.97,NNE,24,0.0,0.0,91,0.00,,,0.03,Wunderground v.1.15,2013-02-23 15:20:00,
2013-02-23 10:30:00,42.5,40.1,29.97,NNE,24,0.0,0.0,91,0.00,,,0.03,Wunderground v.1.15,2013-02-23 15:30:00,
2013-02-23 10:40:00,42.9,40.2,29.96,NNE,24,0.0,0.0,90,0.00,,,0.03,Wunderground v.1.15,2013-02-23 15:40:00,
2013-02-23 10:50:00,43.6,40.9,29.97,NNE,24,0.0,0.0,90,0.00,,,0.03,Wunderground v.1.15,2013-02-23 15:50:00,
2013-02-23 10:55:00,43.9,41.2,29.96,NNE,24,0.0,0.0,90,0.00,,,0.03,Wunderground v.1.15,2013-02-23 15:55:00,
2013-02-23 11:00:00,44.2,41.5,29.96,NNE,24,0.0,0.0,90,0.00,,,0.03,Wunderground v.1.15,2013-02-23 16:00:00,
2013-02-23 11:10:00,44.9,42.1,29.95,NNE,24,0.0,0.0,90,0.00,,,0.03,Wunderground v.1.15,2013-02-23 16:10:00,
2013-02-23 11:20:00,45.7,42.9,29.95,SSW,194,0.0,0.0,90,0.00,,,0.03,Wunderground v.1.15,2013-02-23 16:20:00,
2013-02-23 11:30:00,46.2,43.4,29.95,SSW,193,0.0,0.0,90,0.00,,,0.03,Wunderground v.1.15,2013-02-23 16:30:00,
2013-02-23 11:40:00,46.2,42.8,29.95,SSW,193,0.0,0.0,88,0.00,,,0.03,Wunderground v.1.15,2013-02-23 16:40:00,
2013-02-23 11:50:00,46.2,43.1,29.95,SSW,194,0.0,0.0,89,0.00,,,0.03,Wunderground v.1.15,2013-02-23 16:50:00,
2013-02-23 11:55:00,46.1,42.7,29.95,SSW,194,0.0,0.0,88,0.00,,,0.03,Wunderground v.1.15,2013-02-23 16:55:00,
2013-02-23 12:05:00,46.5,43.4,29.95,SSW,194,0.0,0.0,89,0.00,,,0.03,Wunderground v.1.15,2013-02-23 17:05:00,
2013-02-23 12:15:00,47.4,44.3,29.95,SSW,194,0.0,0.0,89,0.00,,,0.03,Wunderground v.1.15,2013-02-23 17:15:00,
2013-02-23 12:20:00,47.9,44.5,29.95,SW,236,0.0,0.0,88,0.00,,,0.03,Wunderground v.1.15,2013-02-23 17:20:00,
2013-02-23 12:30:00,48.5,45.1,29.94,SW,235,0.0,0.0,88,0.00,,,0.03,Wunderground v.1.15,2013-02-23 17:30:00,
2013-02-23 12:35:00,48.8,45.1,29.94,SSW,209,1.0,1.0,87,0.00,,,0.03,Wunderground v.1.15,2013-02-23 17:35:00,
2013-02-23 12:40:00,48.6,44.9,29.94,SSW,209,0.0,0.0,87,0.00,,,0.03,Wunderground v.1.15,2013-02-23 17:40:00,
2013-02-23 12:50:00,49.2,45.5,29.93,SSW,212,0.0,0.0,87,0.00,,,0.03,Wunderground v.1.15,2013-02-23 17:50:00,
2013-02-23 13:00:00,49.9,45.6,29.93,SSW,206,0.0,0.0,85,0.00,,,0.03,Wunderground v.1.15,2013-02-23 18:00:00,
2013-02-23 13:10:00,50.7,46.0,29.92,SW,214,0.0,0.0,84,0.00,,,0.03,Wunderground v.1.15,2013-02-23 18:10:00,
2013-02-23 13:20:00,50.5,44.9,29.91,SSW,212,0.0,0.0,81,0.00,,,0.03,Wunderground v.1.15,2013-02-23 18:20:00,
2013-02-23 13:25:00,50.8,45.2,29.91,SSW,211,0.0,0.0,81,0.00,,,0.03,Wunderground v.1.15,2013-02-23 18:25:00,
2013-02-23 13:35:00,51.1,44.8,29.90,SSW,198,1.0,2.0,79,0.00,,,0.03,Wunderground v.1.15,2013-02-23 18:35:00,
2013-02-23 13:40:00,51.1,44.5,29.90,SSW,199,1.0,1.0,78,0.00,,,0.03,Wunderground v.1.15,2013-02-23 18:40:00,
2013-02-23 13:45:00,51.6,45.0,29.90,SSW,194,0.0,1.0,78,0.00,,,0.03,Wunderground v.1.15,2013-02-23 18:45:00,
2013-02-23 13:50:00,52.2,45.2,29.90,SSW,192,0.0,0.0,77,0.00,,,0.03,Wunderground v.1.15,2013-02-23 18:50:00,
2013-02-23 14:00:00,52.3,45.0,29.89,South,188,1.0,1.0,76,0.00,,,0.03,Wunderground v.1.15,2013-02-23 19:00:00,
2013-02-23 14:10:00,52.8,45.1,29.89,SW,217,0.0,0.0,75,0.00,,,0.03,Wunderground v.1.15,2013-02-23 19:10:00,
2013-02-23 14:20:00,53.1,44.7,29.89,SW,228,2.0,5.0,73,0.00,,,0.03,Wunderground v.1.15,2013-02-23 19:20:00,
2013-02-23 14:30:00,53.2,45.1,29.89,South,179,2.0,2.0,74,0.00,,,0.03,Wunderground v.1.15,2013-02-23 19:30:00,
2013-02-23 14:40:00,52.9,44.5,29.89,SSW,204,2.0,2.0,73,0.00,,,0.03,Wunderground v.1.15,2013-02-23 19:40:00,
2013-02-23 14:50:00,53.2,45.1,29.89,SSW,203,0.0,0.0,74,0.00,,,0.03,Wunderground v.1.15,2013-02-23 19:50:00,
2013-02-23 15:00:00,53.5,44.7,29.88,SSW,212,1.0,2.0,72,0.00,,,0.03,Wunderground v.1.15,2013-02-23 20:00:00,
2013-02-23 15:05:00,53.5,44.0,29.88,SSW,194,1.0,2.0,70,0.00,,,0.03,Wunderground v.1.15,2013-02-23 20:05:00,
2013-02-23 15:15:00,54.5,44.5,29.88,SW,227,1.0,1.0,69,0.00,,,0.03,Wunderground v.1.15,2013-02-23 20:15:00,
2013-02-23 15:20:00,55.0,45.0,29.88,SSW,198,1.0,5.0,69,0.00,,,0.03,Wunderground v.1.15,2013-02-23 20:20:00,
2013-02-23 15:25:00,55.3,44.1,29.88,South,188,2.0,5.0,66,0.00,,,0.03,Wunderground v.1.15,2013-02-23 20:25:00,
2013-02-23 15:30:00,55.0,43.8,29.89,SSW,202,2.0,2.0,66,0.00,,,0.03,Wunderground v.1.15,2013-02-23 20:30:00,
2013-02-23 15:40:00,54.8,43.7,29.89,SW,227,2.0,2.0,66,0.00,,,0.03,Wunderground v.1.15,2013-02-23 20:40:00,
2013-02-23 15:50:00,55.0,44.6,29.88,SW,227,1.0,1.0,68,0.00,,,0.03,Wunderground v.1.15,2013-02-23 20:50:00,
2013-02-23 16:00:00,55.0,43.8,29.88,SSW,205,1.0,1.0,66,0.00,,,0.03,Wunderground v.1.15,2013-02-23 21:00:00,
2013-02-23 16:05:00,55.0,44.2,29.88,SW,232,1.0,1.0,67,0.00,,,0.03,Wunderground v.1.15,2013-02-23 21:05:00,
2013-02-23 16:10:00,55.1,43.9,29.88,SW,215,1.0,1.0,66,0.00,,,0.03,Wunderground v.1.15,2013-02-23 21:10:00,
2013-02-23 16:20:00,55.6,43.6,29.88,SW,224,0.0,1.0,64,0.00,,,0.03,Wunderground v.1.15,2013-02-23 21:20:00,
2013-02-23 16:30:00,55.7,43.3,29.88,SSW,197,1.0,1.0,63,0.00,,,0.03,Wunderground v.1.15,2013-02-23 21:30:00,
2013-02-23 16:40:00,55.7,44.1,29.88,WSW,242,1.0,2.0,65,0.00,,,0.03,Wunderground v.1.15,2013-02-23 21:40:00,
2013-02-23 16:50:00,54.8,43.3,29.87,SSW,192,1.0,2.0,65,0.00,,,0.03,Wunderground v.1.15,2013-02-23 21:50:00,
2013-02-23 17:00:00,53.2,42.9,29.87,SSW,206,0.0,0.0,68,0.00,,,0.03,Wunderground v.1.15,2013-02-23 22:00:00,
2013-02-23 17:10:00,52.8,43.3,29.87,SSW,205,0.0,0.0,70,0.00,,,0.03,Wunderground v.1.15,2013-02-23 22:10:00,
2013-02-23 17:20:00,52.5,42.6,29.87,SSW,206,0.0,0.0,69,0.00,,,0.03,Wunderground v.1.15,2013-02-23 22:20:00,
2013-02-23 17:25:00,52.5,43.0,29.87,SSW,206,0.0,0.0,70,0.00,,,0.03,Wunderground v.1.15,2013-02-23 22:25:00,
2013-02-23 17:35:00,52.0,42.9,29.87,SSW,206,0.0,0.0,71,0.00,,,0.03,Wunderground v.1.15,2013-02-23 22:35:00,
2013-02-23 17:40:00,51.7,42.6,29.87,SSW,206,0.0,0.0,71,0.00,,,0.03,Wunderground v.1.15,2013-02-23 22:40:00,
2013-02-23 17:50:00,51.1,42.0,29.86,SSW,206,0.0,0.0,71,0.00,,,0.03,Wunderground v.1.15,2013-02-23 22:50:00,
2013-02-23 18:00:00,50.5,42.5,29.87,SSW,204,0.0,0.0,74,0.00,,,0.03,Wunderground v.1.15,2013-02-23 23:00:00,
2013-02-23 18:05:00,50.4,42.8,29.87,SSW,204,0.0,0.0,75,0.00,,,0.03,Wunderground v.1.15,2013-02-23 23:05:00,
2013-02-23 18:10:00,50.2,42.9,29.87,SSW,204,0.0,0.0,76,0.00,,,0.03,Wunderground v.1.15,2013-02-23 23:10:00,
2013-02-23 18:20:00,49.6,42.7,29.86,SSW,204,0.0,0.0,77,0.00,,,0.03,Wunderground v.1.15,2013-02-23 23:20:00,
2013-02-23 18:25:00,49.5,42.9,29.86,SSW,204,0.0,0.0,78,0.00,,,0.03,Wunderground v.1.15,2013-02-23 23:25:00,
2013-02-23 18:35:00,48.8,42.6,29.86,SSW,204,0.0,0.0,79,0.00,,,0.03,Wunderground v.1.15,2013-02-23 23:35:00,
2013-02-23 18:45:00,48.2,42.3,29.86,SSW,204,0.0,0.0,80,0.00,,,0.03,Wunderground v.1.15,2013-02-23 23:45:00,
2013-02-23 18:55:00,47.4,41.9,29.85,SSW,204,0.0,0.0,81,0.00,,,0.03,Wunderground v.1.15,2013-02-23 23:55:00,
2013-02-23 19:00:00,47.0,41.5,29.85,SSW,204,0.0,0.0,81,0.00,,,0.03,Wunderground v.1.15,2013-02-24 00:00:00,
2013-02-23 19:10:00,46.4,41.5,29.86,SSW,204,0.0,0.0,83,0.00,,,0.03,Wunderground v.1.15,2013-02-24 00:10:00,
2013-02-23 19:20:00,46.1,41.5,29.86,SSW,204,0.0,0.0,84,0.00,,,0.03,Wunderground v.1.15,2013-02-24 00:20:00,
2013-02-23 19:30:00,45.8,41.5,29.87,SSW,204,0.0,0.0,85,0.00,,,0.03,Wunderground v.1.15,2013-02-24 00:30:00,
2013-02-23 19:40:00,45.7,41.4,29.87,SSW,204,0.0,0.0,85,0.00,,,0.03,Wunderground v.1.15,2013-02-24 00:40:00,
2013-02-23 19:45:00,45.5,41.3,29.86,SSW,204,0.0,0.0,85,0.00,,,0.03,Wunderground v.1.15,2013-02-24 00:45:00,
2013-02-23 19:50:00,45.5,41.6,29.86,SSW,204,0.0,0.0,86,0.00,,,0.03,Wunderground v.1.15,2013-02-24 00:50:00,
2013-02-23 20:00:00,45.2,41.3,29.86,SSW,204,0.0,0.0,86,0.00,,,0.03,Wunderground v.1.15,2013-02-24 01:00:00,
2013-02-23 20:10:00,45.1,41.2,29.86,SSW,204,0.0,0.0,86,0.00,,,0.03,Wunderground v.1.15,2013-02-24 01:10:00,
2013-02-23 20:20:00,44.5,40.9,29.86,SSW,204,0.0,0.0,87,0.00,,,0.03,Wunderground v.1.15,2013-02-24 01:20:00,
2013-02-23 20:25:00,44.2,40.9,29.86,SSW,204,0.0,0.0,88,0.00,,,0.03,Wunderground v.1.15,2013-02-24 01:25:00,
2013-02-23 20:30:00,43.9,40.6,29.85,SSW,204,0.0,0.0,88,0.00,,,0.03,Wunderground v.1.15,2013-02-24 01:30:00,
2013-02-23 20:35:00,43.8,40.8,29.85,SSW,204,0.0,0.0,89,0.00,,,0.03,Wunderground v.1.15,2013-02-24 01:35:00,
2013-02-23 20:40:00,43.6,40.6,29.85,SSW,204,0.0,0.0,89,0.00,,,0.03,Wunderground v.1.15,2013-02-24 01:40:00,
2013-02-23 20:45:00,43.5,40.5,29.84,SSW,204,0.0,0.0,89,0.00,,,0.03,Wunderground v.1.15,2013-02-24 01:45:00,
2013-02-23 20:50:00,43.3,40.3,29.84,SSW,204,0.0,0.0,89,0.00,,,0.03,Wunderground v.1.15,2013-02-24 01:50:00,
2013-02-23 20:55:00,43.1,40.1,29.83,SSW,204,0.0,0.0,89,0.00,,,0.03,Wunderground v.1.15,2013-02-24 01:55:00,
2013-02-23 21:00:00,42.8,39.8,29.83,SSW,204,0.0,0.0,89,0.00,,,0.03,Wunderground v.1.15,2013-02-24 02:00:00,
2013-02-23 21:10:00,42.3,39.9,29.84,SSW,204,0.0,0.0,91,0.00,,,0.03,Wunderground v.1.15,2013-02-24 02:10:00,
2013-02-23 21:20:00,41.8,39.4,29.85,SSW,204,0.0,0.0,91,0.00,,,0.03,Wunderground v.1.15,2013-02-24 02:20:00,
2013-02-23 21:25:00,41.6,39.4,29.84,SSW,204,0.0,0.0,92,0.00,,,0.03,Wunderground v.1.15,2013-02-24 02:25:00,
2013-02-23 21:30:00,41.5,39.3,29.85,SSW,204,0.0,0.0,92,0.00,,,0.03,Wunderground v.1.15,2013-02-24 02:30:00,
2013-02-23 21:40:00,40.8,38.4,29.85,SSW,204,0.0,0.0,91,0.00,,,0.03,Wunderground v.1.15,2013-02-24 02:40:00,
2013-02-23 21:45:00,40.3,38.2,29.85,SSW,204,0.0,0.0,92,0.00,,,0.03,Wunderground v.1.15,2013-02-24 02:45:00,
2013-02-23 21:50:00,40.2,38.1,29.86,SSW,204,0.0,0.0,92,0.00,,,0.03,Wunderground v.1.15,2013-02-24 02:50:00,
2013-02-23 21:55:00,39.9,37.8,29.86,SSW,205,0.0,0.0,92,0.00,,,0.03,Wunderground v.1.15,2013-02-24 02:55:00,
2013-02-23 22:05:00,40.2,38.6,29.87,SSW,204,0.0,0.0,94,0.00,,,0.03,Wunderground v.1.15,2013-02-24 03:05:00,
2013-02-23 22:10:00,40.5,38.9,29.86,SSW,204,0.0,0.0,94,0.00,,,0.03,Wunderground v.1.15,2013-02-24 03:10:00,
2013-02-23 22:20:00,41.1,39.8,29.87,SSW,204,0.0,0.0,95,0.00,,,0.03,Wunderground v.1.15,2013-02-24 03:20:00,
2013-02-23 22:30:00,41.6,40.3,29.87,SSW,204,0.0,0.0,95,0.00,,,0.03,Wunderground v.1.15,2013-02-24 03:30:00,
2013-02-23 22:35:00,42.5,41.2,29.87,SSW,204,0.0,0.0,95,0.00,,,0.03,Wunderground v.1.15,2013-02-24 03:35:00,
2013-02-23 22:40:00,42.8,41.5,29.87,SSW,204,0.0,0.0,95,0.00,,,0.03,Wunderground v.1.15,2013-02-24 03:40:00,
2013-02-23 22:50:00,42.9,41.3,29.87,SSW,204,0.0,0.0,94,0.00,,,0.03,Wunderground v.1.15,2013-02-24 03:50:00,
2013-02-23 22:55:00,43.1,41.5,29.87,SSW,204,0.0,0.0,94,0.00,,,0.03,Wunderground v.1.15,2013-02-24 03:55:00,
2013-02-23 23:00:00,43.3,42.0,29.87,SSW,204,0.0,0.0,95,0.00,,,0.03,Wunderground v.1.15,2013-02-24 04:00:00,
2013-02-23 23:05:00,43.9,42.6,29.87,SSW,205,0.0,0.0,95,0.00,,,0.03,Wunderground v.1.15,2013-02-24 04:05:00,
2013-02-23 23:10:00,44.3,43.0,29.87,SW,216,0.0,5.0,95,0.00,,,0.03,Wunderground v.1.15,2013-02-24 04:10:00,
2013-02-23 23:15:00,44.9,43.3,29.88,SW,223,2.0,5.0,94,0.00,,,0.03,Wunderground v.1.15,2013-02-24 04:15:00,
2013-02-23 23:20:00,45.1,43.5,29.87,SW,225,3.0,3.0,94,0.00,,,0.03,Wunderground v.1.15,2013-02-24 04:20:00,
2013-02-23 23:25:00,45.2,43.3,29.87,SW,225,2.0,3.0,93,0.00,,,0.03,Wunderground v.1.15,2013-02-24 04:25:00,
2013-02-23 23:30:00,45.2,43.3,29.88,SW,225,0.0,0.0,93,0.00,,,0.03,Wunderground v.1.15,2013-02-24 04:30:00,
2013-02-23 23:40:00,45.4,43.8,29.87,SSW,193,1.0,3.0,94,0.00,,,0.03,Wunderground v.1.15,2013-02-24 04:40:00,
2013-02-23 23:45:00,45.4,43.5,29.87,SSW,198,2.0,5.0,93,0.00,,,0.03,Wunderground v.1.15,2013-02-24 04:45:00,
2013-02-23 23:50:00,45.2,43.3,29.87,SSW,207,2.0,2.0,93,0.00,,,0.03,Wunderground v.1.15,2013-02-24 04:50:00,